Ms Simon — A8DU9 — position and weather

sailwx.info

Track history (hours):
 
Tides and Currents Weather Stations Pressure Air Temp Water Temp Dewpoint Dewpoint Depression Visibility Wind Speed Wind Dir Waves Ship Positions

Ms Simon

Last reported at 2018-Feb-21 05:30 UTC. Time now 2018-Feb-21 05:55 UTC.
Position N 57°50' E 010°32'.

Length 175 m; draft 9.6 m.

Type: Tanker. MMSI: 636091485.

Date/timePositionNaut miles runAvg speedWind from/ knotsBaromVisibWave heightAir tempDewpointWater temp
2018-Feb-21 05:30N 57°50' E 010°32'612.8
2018-Feb-21 05:00N 57°50' E 010°44'5 9.9
2018-Feb-21 04:29N 57°46' E 010°49'510.5
2018-Feb-21 04:00N 57°41' E 010°47'2 4.6
2018-Feb-21 03:30N 57°39' E 010°47'3 7.0
2018-Feb-21 03:00N 57°35' E 010°49'612.5
2018-Feb-21 02:30N 57°34' E 011°01'713.5
2018-Feb-21 02:00N 57°33' E 011°13'713.1
2018-Feb-21 01:30N 57°29' E 011°23'612.9
2018-Feb-21 01:00N 57°24' E 011°29'713.1
2018-Feb-21 00:30N 57°17' E 011°33'613.0
2018-Feb-21 00:00N 57°11' E 011°37'713.3
2018-Feb-20 23:30N 57°05' E 011°41'713.0
2018-Feb-20 22:58N 56°58' E 011°45'10211.8
2018-Feb-20 14:16N 55°19' E 011°02'413.9
2018-Feb-20 14:00N 55°16' E 011°05'612.7
2018-Feb-20 13:30N 55°09' E 011°03'714.5
2018-Feb-20 13:01N 55°02' E 011°02'713.5
2018-Feb-20 12:31N 54°57' E 010°54'815.1
2018-Feb-20 12:01N 54°50' E 010°50'714.1
2018-Feb-20 11:30N 54°43' E 010°47'612.5
2018-Feb-20 11:01N 54°38' E 010°54'714.0
2018-Feb-20 10:31N 54°36' E 011°05'714.1
2018-Feb-20 10:00N 54°34' E 011°17'714.5
2018-Feb-20 09:30N 54°31' E 011°28'713.5
2018-Feb-20 09:00N 54°29' E 011°39'713.3
2018-Feb-20 08:29N 54°27' E 011°50'613.2
2018-Feb-20 08:00N 54°26' E 012°01'612.0
2018-Feb-20 07:28N 54°28' E 012°12'613.1
2018-Feb-20 07:00N 54°34' E 012°15'612.8
2018-Feb-20 06:30N 54°39' E 012°23'5011.9
2018-Feb-20 02:19N 54°59' E 013°41'713.4
2018-Feb-20 01:46N 55°02' E 013°53'513.1
2018-Feb-20 01:25N 55°03' E 014°01'512.3
2018-Feb-20 01:00N 55°06' E 014°08'612.7
2018-Feb-20 00:30N 55°11' E 014°15'712.9
2018-Feb-19 23:59N 55°17' E 014°22'612.8
2018-Feb-19 23:30N 55°22' E 014°29'612.8
2018-Feb-19 23:00N 55°27' E 014°36'613.1
2018-Feb-19 22:30N 55°29' E 014°46'713.1
2018-Feb-19 22:00N 55°32' E 014°57'713.1
2018-Feb-19 21:30N 55°35' E 015°07'613.0
2018-Feb-19 21:00N 55°38' E 015°17'612.9
2018-Feb-19 20:30N 55°41' E 015°28'612.9
2018-Feb-19 20:00N 55°43' E 015°39'613.0
2018-Feb-19 19:30N 55°44' E 015°50'713.1
2018-Feb-19 19:00N 55°45' E 016°01'612.9
2018-Feb-19 18:30N 55°47' E 016°12'612.9
2018-Feb-19 18:00N 55°48' E 016°23'612.7
2018-Feb-19 17:30N 55°48' E 016°35'613.0
2018-Feb-19 17:00N 55°48' E 016°46'  
2018-Feb-17 06:29N 55°47' E 017°01'813.4
2018-Feb-17 05:55N 55°47' E 016°48'613.5
2018-Feb-17 05:30N 55°45' E 016°38'713.5
2018-Feb-17 05:00N 55°43' E 016°27'713.5
2018-Feb-17 04:30N 55°43' E 016°15'713.7
2018-Feb-17 04:00N 55°42' E 016°03'713.5
2018-Feb-17 03:30N 55°41' E 015°51'713.7
2018-Feb-17 03:00N 55°39' E 015°39'713.7
2018-Feb-17 02:30N 55°37' E 015°28'713.5
2018-Feb-17 02:00N 55°34' E 015°17'713.5
2018-Feb-17 01:30N 55°31' E 015°06'713.3
2018-Feb-17 01:01N 55°29' E 014°56'813.2
2018-Feb-17 00:22N 55°25' E 014°42'513.1
2018-Feb-17 00:00N 55°21' E 014°37'613.0
2018-Feb-16 23:30N 55°16' E 014°30'713.0
2018-Feb-16 23:00N 55°12' E 014°22'1013.2
2018-Feb-16 22:14N 55°09' E 014°04'1013.8
2018-Feb-16 21:32N 55°10' E 013°48'414.0
2018-Feb-16 21:16N 55°11' E 013°41'714.0
2018-Feb-16 20:45N 55°12' E 013°29'413.9
2018-Feb-16 20:29N 55°12' E 013°22'813.8
2018-Feb-16 19:56N 55°13' E 013°09'613.9
2018-Feb-16 19:30N 55°14' E 012°59'713.5
2018-Feb-16 19:00N 55°16' E 012°47'612.7
2018-Feb-16 18:31N 55°19' E 012°38'714.0
2018-Feb-16 18:01N 55°26' E 012°39'611.0
2018-Feb-16 17:30N 55°31' E 012°42'5 9.4
2018-Feb-16 17:00N 55°36' E 012°42'612.5
2018-Feb-16 16:30N 55°42' E 012°41'714.0
2018-Feb-16 16:00N 55°49' E 012°42'713.8
2018-Feb-16 15:30N 55°55' E 012°38'713.4
2018-Feb-16 15:00N 56°02' E 012°39'714.5
2018-Feb-16 14:30N 56°07' E 012°30'4 9.0
2018-Feb-16 14:00N 56°10' E 012°24'4 8.6
2018-Feb-16 13:30N 56°12' E 012°17'5112.0
2018-Feb-16 09:15N 56°60' E 011°43'312.4
2018-Feb-16 09:00N 57°03' E 011°41'612.2
2018-Feb-16 08:30N 57°08' E 011°37'612.5
2018-Feb-16 08:00N 57°14' E 011°33'612.6
2018-Feb-16 07:30N 57°20' E 011°29'612.1
2018-Feb-16 07:00N 57°26' E 011°26'612.6
2018-Feb-16 06:31N 57°30' E 011°18'713.0
2018-Feb-16 06:00N 57°35' E 011°09'612.3
2018-Feb-16 05:30N 57°39' E 011°01'713.2
2018-Feb-16 05:00N 57°44' E 010°52'612.5
2018-Feb-16 04:30N 57°47' E 010°41'714.2
2018-Feb-16 04:00N 57°46' E 010°28'44713.1
2018-Feb-14 17:55N 51°51' E 002°38'913.9
2018-Feb-14 17:17N 51°43' E 002°32'414.2
2018-Feb-14 16:59N 51°40' E 002°27'714.4
2018-Feb-14 16:30N 51°35' E 002°20'814.7
2018-Feb-14 16:00N 51°29' E 002°12'715.1
2018-Feb-14 15:30N 51°24' E 002°04'715.2
2018-Feb-14 15:01N 51°18' E 001°56'815.9
2018-Feb-14 14:30N 51°12' E 001°47'816.3
2018-Feb-14 14:00N 51°05' E 001°40'816.1
2018-Feb-14 13:31N 50°60' E 001°32'816.4
2018-Feb-14 13:00N 50°52' E 001°25'1116.1
2018-Feb-14 12:19N 50°42' E 001°21'815.3
2018-Feb-14 11:49N 50°37' E 001°11'615.2
2018-Feb-14 11:24N 50°33' E 001°03'614.7
2018-Feb-14 10:59N 50°30' E 000°55'914.8
2018-Feb-14 10:23N 50°27' E 000°41'715.0
2018-Feb-14 09:54N 50°25' E 000°31'615.2
2018-Feb-14 09:30N 50°24' E 000°21'815.6
2018-Feb-14 09:00N 50°22' E 000°10'815.9
2018-Feb-14 08:30N 50°20' W 000°03'816.1
2018-Feb-14 08:01N 50°18' W 000°15'2916.5
2018-Feb-14 06:14N 50°11' W 000°59'416.3
2018-Feb-14 05:58N 50°09' W 001°05'715.9
2018-Feb-14 05:30N 50°07' W 001°16'815.5
2018-Feb-14 05:01N 50°05' W 001°28'714.2
2018-Feb-14 04:30N 50°04' W 001°39'713.6
2018-Feb-14 04:00N 50°09' W 001°46'713.3
2018-Feb-14 03:30N 50°14' W 001°54'713.0
2018-Feb-14 03:00N 50°19' W 002°00'712.7
2018-Feb-14 02:29N 50°23' W 002°08'1112.4
2018-Feb-14 01:33N 50°32' W 002°19'1 9.9
2018-Feb-14 01:29N 50°33' W 002°20'4 8.3
2018-Feb-14 00:59N 50°36' W 002°24'1 1.0
2018-Feb-14 00:26N 50°36' W 002°25'0 0.1
2018-Feb-13 23:59N 50°36' W 002°25'0 0.1
2018-Feb-13 23:23N 50°36' W 002°25'0 0.1
2018-Feb-13 22:59N 50°36' W 002°25'0 0.0
2018-Feb-13 22:23N 50°36' W 002°25'0 0.1
2018-Feb-13 21:59N 50°36' W 002°25'0 0.1
2018-Feb-13 21:20N 50°36' W 002°25'0 0.1
2018-Feb-13 20:59N 50°36' W 002°25'0 0.0
2018-Feb-13 20:11N 50°36' W 002°25'0 0.1
2018-Feb-13 19:53N 50°36' W 002°25'0 0.1
2018-Feb-13 19:26N 50°36' W 002°25'0 0.1
2018-Feb-13 18:59N 50°36' W 002°25'0 0.1
2018-Feb-13 17:50N 50°36' W 002°25'0 0.0
2018-Feb-13 17:26N 50°36' W 002°25'0 0.1
2018-Feb-13 16:53N 50°36' W 002°25'0 1.2
2018-Feb-13 16:30N 50°36' W 002°25'1 1.4
2018-Feb-13 16:00N 50°36' W 002°23'0 0.1
2018-Feb-13 15:30N 50°36' W 002°23'0 0.0
2018-Feb-13 14:57N 50°36' W 002°23'0 0.0
2018-Feb-13 14:12N 50°36' W 002°23'0 0.1
2018-Feb-13 14:00N 50°36' W 002°23'0 0.1
2018-Feb-13 13:18N 50°36' W 002°23'0 0.4
2018-Feb-13 13:00N 50°37' W 002°24'0 0.1
2018-Feb-13 12:30N 50°37' W 002°24'0 0.1
2018-Feb-13 11:48N 50°36' W 002°24'0 0.2
2018-Feb-13 11:30N 50°36' W 002°24'0 0.2
2018-Feb-13 10:52N 50°37' W 002°24'0 0.2
2018-Feb-13 10:19N 50°37' W 002°24'0 0.1
2018-Feb-13 09:52N 50°37' W 002°24'0 0.0
2018-Feb-13 09:16N 50°37' W 002°24'0 0.0
2018-Feb-13 08:58N 50°37' W 002°24'0 0.3
2018-Feb-13 08:28N 50°36' W 002°24'1 1.7
2018-Feb-13 07:58N 50°37' W 002°24'1 1.4
2018-Feb-13 07:27N 50°37' W 002°24'0 0.0
2018-Feb-13 07:00N 50°37' W 002°24'0 0.0
2018-Feb-13 05:51N 50°37' W 002°24'0 0.1
2018-Feb-13 05:30N 50°37' W 002°23'0 0.0
2018-Feb-13 04:57N 50°37' W 002°23'0 0.0
2018-Feb-13 03:57N 50°37' W 002°24'0 0.0
2018-Feb-13 03:21N 50°37' W 002°23'0 0.0
2018-Feb-13 02:51N 50°37' W 002°23'0 0.1
2018-Feb-13 02:15N 50°37' W 002°23'0 0.1
2018-Feb-13 01:54N 50°37' W 002°23'0 0.0
2018-Feb-13 01:21N 50°37' W 002°23'0 0.0
2018-Feb-13 00:15N 50°37' W 002°23'0 0.0
2018-Feb-12 23:06N 50°37' W 002°23'0 0.1
2018-Feb-12 22:39N 50°37' W 002°23'0 0.0
2018-Feb-12 22:21N 50°37' W 002°23'0 0.1
2018-Feb-12 22:00N 50°37' W 002°23'0 0.0
2018-Feb-12 21:24N 50°37' W 002°23'0 1.0
2018-Feb-12 21:00N 50°36' W 002°23'3 5.1
2018-Feb-12 20:30N 50°34' W 002°21'5 9.1
2018-Feb-12 19:58N 50°30' W 002°17'612.1
2018-Feb-12 19:30N 50°24' W 002°16'2412.6
2018-Feb-12 17:37N 50°01' W 002°12'1014.2
2018-Feb-12 16:54N 49°56' W 002°27'1514.1
2018-Feb-12 15:52N 49°51' W 002°48'513.8
2018-Feb-12 15:30N 49°48' W 002°54'813.5
2018-Feb-12 14:55N 49°44' W 003°05'613.3
2018-Feb-12 14:30N 49°42' W 003°13'  
Track history (hours):
 
Tides and Currents Weather Stations Pressure Air Temp Water Temp Dewpoint Dewpoint Depression Visibility Wind Speed Wind Dir Waves Ship Positions

Ms Simon

Last reported at 2018-Feb-21 05:30 UTC. Time now 2018-Feb-21 05:55 UTC.
Position N 57°50' E 010°32'.

Length 175 m; draft 9.6 m.

Type: Tanker. MMSI: 636091485.

Date/timePositionNaut miles runAvg speedWind from/ knotsBaromVisibWave heightAir tempDewpointWater temp
2018-Feb-21 05:30N 57°50' E 010°32'612.8
2018-Feb-21 05:00N 57°50' E 010°44'5 9.9
2018-Feb-21 04:29N 57°46' E 010°49'510.5
2018-Feb-21 04:00N 57°41' E 010°47'2 4.6
2018-Feb-21 03:30N 57°39' E 010°47'3 7.0
2018-Feb-21 03:00N 57°35' E 010°49'612.5
2018-Feb-21 02:30N 57°34' E 011°01'713.5
2018-Feb-21 02:00N 57°33' E 011°13'713.1
2018-Feb-21 01:30N 57°29' E 011°23'612.9
2018-Feb-21 01:00N 57°24' E 011°29'713.1
2018-Feb-21 00:30N 57°17' E 011°33'613.0
2018-Feb-21 00:00N 57°11' E 011°37'713.3
2018-Feb-20 23:30N 57°05' E 011°41'713.0
2018-Feb-20 22:58N 56°58' E 011°45'10211.8
2018-Feb-20 14:16N 55°19' E 011°02'413.9
2018-Feb-20 14:00N 55°16' E 011°05'612.7
2018-Feb-20 13:30N 55°09' E 011°03'714.5
2018-Feb-20 13:01N 55°02' E 011°02'713.5
2018-Feb-20 12:31N 54°57' E 010°54'815.1
2018-Feb-20 12:01N 54°50' E 010°50'714.1
2018-Feb-20 11:30N 54°43' E 010°47'612.5
2018-Feb-20 11:01N 54°38' E 010°54'714.0
2018-Feb-20 10:31N 54°36' E 011°05'714.1
2018-Feb-20 10:00N 54°34' E 011°17'714.5
2018-Feb-20 09:30N 54°31' E 011°28'713.5
2018-Feb-20 09:00N 54°29' E 011°39'713.3
2018-Feb-20 08:29N 54°27' E 011°50'613.2
2018-Feb-20 08:00N 54°26' E 012°01'612.0
2018-Feb-20 07:28N 54°28' E 012°12'613.1
2018-Feb-20 07:00N 54°34' E 012°15'612.8
2018-Feb-20 06:30N 54°39' E 012°23'5011.9
2018-Feb-20 02:19N 54°59' E 013°41'713.4
2018-Feb-20 01:46N 55°02' E 013°53'513.1
2018-Feb-20 01:25N 55°03' E 014°01'512.3
2018-Feb-20 01:00N 55°06' E 014°08'612.7
2018-Feb-20 00:30N 55°11' E 014°15'712.9
2018-Feb-19 23:59N 55°17' E 014°22'612.8
2018-Feb-19 23:30N 55°22' E 014°29'612.8
2018-Feb-19 23:00N 55°27' E 014°36'613.1
2018-Feb-19 22:30N 55°29' E 014°46'713.1
2018-Feb-19 22:00N 55°32' E 014°57'713.1
2018-Feb-19 21:30N 55°35' E 015°07'613.0
2018-Feb-19 21:00N 55°38' E 015°17'612.9
2018-Feb-19 20:30N 55°41' E 015°28'612.9
2018-Feb-19 20:00N 55°43' E 015°39'613.0
2018-Feb-19 19:30N 55°44' E 015°50'713.1
2018-Feb-19 19:00N 55°45' E 016°01'612.9
2018-Feb-19 18:30N 55°47' E 016°12'612.9
2018-Feb-19 18:00N 55°48' E 016°23'612.7
2018-Feb-19 17:30N 55°48' E 016°35'613.0
2018-Feb-19 17:00N 55°48' E 016°46'  
2018-Feb-17 06:29N 55°47' E 017°01'813.4
2018-Feb-17 05:55N 55°47' E 016°48'613.5
2018-Feb-17 05:30N 55°45' E 016°38'713.5
2018-Feb-17 05:00N 55°43' E 016°27'713.5
2018-Feb-17 04:30N 55°43' E 016°15'713.7
2018-Feb-17 04:00N 55°42' E 016°03'713.5
2018-Feb-17 03:30N 55°41' E 015°51'713.7
2018-Feb-17 03:00N 55°39' E 015°39'713.7
2018-Feb-17 02:30N 55°37' E 015°28'713.5
2018-Feb-17 02:00N 55°34' E 015°17'713.5
2018-Feb-17 01:30N 55°31' E 015°06'713.3
2018-Feb-17 01:01N 55°29' E 014°56'813.2
2018-Feb-17 00:22N 55°25' E 014°42'513.1
2018-Feb-17 00:00N 55°21' E 014°37'613.0
2018-Feb-16 23:30N 55°16' E 014°30'713.0
2018-Feb-16 23:00N 55°12' E 014°22'1013.2
2018-Feb-16 22:14N 55°09' E 014°04'1013.8
2018-Feb-16 21:32N 55°10' E 013°48'414.0
2018-Feb-16 21:16N 55°11' E 013°41'714.0
2018-Feb-16 20:45N 55°12' E 013°29'413.9
2018-Feb-16 20:29N 55°12' E 013°22'813.8
2018-Feb-16 19:56N 55°13' E 013°09'613.9
2018-Feb-16 19:30N 55°14' E 012°59'713.5
2018-Feb-16 19:00N 55°16' E 012°47'612.7
2018-Feb-16 18:31N 55°19' E 012°38'714.0
2018-Feb-16 18:01N 55°26' E 012°39'611.0
2018-Feb-16 17:30N 55°31' E 012°42'5 9.4
2018-Feb-16 17:00N 55°36' E 012°42'612.5
2018-Feb-16 16:30N 55°42' E 012°41'714.0
2018-Feb-16 16:00N 55°49' E 012°42'713.8
2018-Feb-16 15:30N 55°55' E 012°38'713.4
2018-Feb-16 15:00N 56°02' E 012°39'714.5
2018-Feb-16 14:30N 56°07' E 012°30'4 9.0
2018-Feb-16 14:00N 56°10' E 012°24'4 8.6
2018-Feb-16 13:30N 56°12' E 012°17'5112.0
2018-Feb-16 09:15N 56°60' E 011°43'312.4
2018-Feb-16 09:00N 57°03' E 011°41'612.2
2018-Feb-16 08:30N 57°08' E 011°37'612.5
2018-Feb-16 08:00N 57°14' E 011°33'612.6
2018-Feb-16 07:30N 57°20' E 011°29'612.1
2018-Feb-16 07:00N 57°26' E 011°26'612.6
2018-Feb-16 06:31N 57°30' E 011°18'713.0
2018-Feb-16 06:00N 57°35' E 011°09'612.3
2018-Feb-16 05:30N 57°39' E 011°01'713.2
2018-Feb-16 05:00N 57°44' E 010°52'612.5
2018-Feb-16 04:30N 57°47' E 010°41'714.2
2018-Feb-16 04:00N 57°46' E 010°28'44713.1
2018-Feb-14 17:55N 51°51' E 002°38'913.9
2018-Feb-14 17:17N 51°43' E 002°32'414.2
2018-Feb-14 16:59N 51°40' E 002°27'714.4
2018-Feb-14 16:30N 51°35' E 002°20'814.7
2018-Feb-14 16:00N 51°29' E 002°12'715.1
2018-Feb-14 15:30N 51°24' E 002°04'715.2
2018-Feb-14 15:01N 51°18' E 001°56'815.9
2018-Feb-14 14:30N 51°12' E 001°47'816.3
2018-Feb-14 14:00N 51°05' E 001°40'816.1
2018-Feb-14 13:31N 50°60' E 001°32'816.4
2018-Feb-14 13:00N 50°52' E 001°25'1116.1
2018-Feb-14 12:19N 50°42' E 001°21'815.3
2018-Feb-14 11:49N 50°37' E 001°11'615.2
2018-Feb-14 11:24N 50°33' E 001°03'614.7
2018-Feb-14 10:59N 50°30' E 000°55'914.8
2018-Feb-14 10:23N 50°27' E 000°41'715.0
2018-Feb-14 09:54N 50°25' E 000°31'615.2
2018-Feb-14 09:30N 50°24' E 000°21'815.6
2018-Feb-14 09:00N 50°22' E 000°10'815.9
2018-Feb-14 08:30N 50°20' W 000°03'816.1
2018-Feb-14 08:01N 50°18' W 000°15'2916.5
2018-Feb-14 06:14N 50°11' W 000°59'416.3
2018-Feb-14 05:58N 50°09' W 001°05'715.9
2018-Feb-14 05:30N 50°07' W 001°16'815.5
2018-Feb-14 05:01N 50°05' W 001°28'714.2
2018-Feb-14 04:30N 50°04' W 001°39'713.6
2018-Feb-14 04:00N 50°09' W 001°46'713.3
2018-Feb-14 03:30N 50°14' W 001°54'713.0
2018-Feb-14 03:00N 50°19' W 002°00'712.7
2018-Feb-14 02:29N 50°23' W 002°08'1112.4
2018-Feb-14 01:33N 50°32' W 002°19'1 9.9
2018-Feb-14 01:29N 50°33' W 002°20'4 8.3
2018-Feb-14 00:59N 50°36' W 002°24'1 1.0
2018-Feb-14 00:26N 50°36' W 002°25'0 0.1
2018-Feb-13 23:59N 50°36' W 002°25'0 0.1
2018-Feb-13 23:23N 50°36' W 002°25'0 0.1
2018-Feb-13 22:59N 50°36' W 002°25'0 0.0
2018-Feb-13 22:23N 50°36' W 002°25'0 0.1
2018-Feb-13 21:59N 50°36' W 002°25'0 0.1
2018-Feb-13 21:20N 50°36' W 002°25'0 0.1
2018-Feb-13 20:59N 50°36' W 002°25'0 0.0
2018-Feb-13 20:11N 50°36' W 002°25'0 0.1
2018-Feb-13 19:53N 50°36' W 002°25'0 0.1
2018-Feb-13 19:26N 50°36' W 002°25'0 0.1
2018-Feb-13 18:59N 50°36' W 002°25'0 0.1
2018-Feb-13 17:50N 50°36' W 002°25'0 0.0
2018-Feb-13 17:26N 50°36' W 002°25'0 0.1
2018-Feb-13 16:53N 50°36' W 002°25'0 1.2
2018-Feb-13 16:30N 50°36' W 002°25'1 1.4
2018-Feb-13 16:00N 50°36' W 002°23'0 0.1
2018-Feb-13 15:30N 50°36' W 002°23'0 0.0
2018-Feb-13 14:57N 50°36' W 002°23'0 0.0
2018-Feb-13 14:12N 50°36' W 002°23'0 0.1
2018-Feb-13 14:00N 50°36' W 002°23'0 0.1
2018-Feb-13 13:18N 50°36' W 002°23'0 0.4
2018-Feb-13 13:00N 50°37' W 002°24'0 0.1
2018-Feb-13 12:30N 50°37' W 002°24'0 0.1
2018-Feb-13 11:48N 50°36' W 002°24'0 0.2
2018-Feb-13 11:30N 50°36' W 002°24'0 0.2
2018-Feb-13 10:52N 50°37' W 002°24'0 0.2
2018-Feb-13 10:19N 50°37' W 002°24'0 0.1
2018-Feb-13 09:52N 50°37' W 002°24'0 0.0
2018-Feb-13 09:16N 50°37' W 002°24'0 0.0
2018-Feb-13 08:58N 50°37' W 002°24'0 0.3
2018-Feb-13 08:28N 50°36' W 002°24'1 1.7
2018-Feb-13 07:58N 50°37' W 002°24'1 1.4
2018-Feb-13 07:27N 50°37' W 002°24'0 0.0
2018-Feb-13 07:00N 50°37' W 002°24'0 0.0
2018-Feb-13 05:51N 50°37' W 002°24'0 0.1
2018-Feb-13 05:30N 50°37' W 002°23'0 0.0
2018-Feb-13 04:57N 50°37' W 002°23'0 0.0
2018-Feb-13 03:57N 50°37' W 002°24'0 0.0
2018-Feb-13 03:21N 50°37' W 002°23'0 0.0
2018-Feb-13 02:51N 50°37' W 002°23'0 0.1
2018-Feb-13 02:15N 50°37' W 002°23'0 0.1
2018-Feb-13 01:54N 50°37' W 002°23'0 0.0
2018-Feb-13 01:21N 50°37' W 002°23'0 0.0
2018-Feb-13 00:15N 50°37' W 002°23'0 0.0
2018-Feb-12 23:06N 50°37' W 002°23'0 0.1
2018-Feb-12 22:39N 50°37' W 002°23'0 0.0
2018-Feb-12 22:21N 50°37' W 002°23'0 0.1
2018-Feb-12 22:00N 50°37' W 002°23'0 0.0
2018-Feb-12 21:24N 50°37' W 002°23'0 1.0
2018-Feb-12 21:00N 50°36' W 002°23'3 5.1
2018-Feb-12 20:30N 50°34' W 002°21'5 9.1
2018-Feb-12 19:58N 50°30' W 002°17'612.1
2018-Feb-12 19:30N 50°24' W 002°16'2412.6
2018-Feb-12 17:37N 50°01' W 002°12'1014.2
2018-Feb-12 16:54N 49°56' W 002°27'1514.1
2018-Feb-12 15:52N 49°51' W 002°48'513.8
2018-Feb-12 15:30N 49°48' W 002°54'813.5
2018-Feb-12 14:55N 49°44' W 003°05'613.3
2018-Feb-12 14:30N 49°42' W 003°13'  

Dump ship's entire track history